createdAt,value
2018-03-02T00:00:59.599Z,24.80
2018-03-02T00:01:59.450Z,19.40
2018-03-02T00:02:59.413Z,19.00
2018-03-02T00:03:59.421Z,20.50
2018-03-02T00:04:59.349Z,22.60
2018-03-02T00:05:59.317Z,23.10
2018-03-02T00:06:59.391Z,23.80
2018-03-02T00:07:59.244Z,27.80
2018-03-02T00:08:59.210Z,22.70
2018-03-02T00:09:59.265Z,21.60
2018-03-02T00:10:59.148Z,19.40
2018-03-02T00:11:59.123Z,21.60
2018-03-02T00:12:59.088Z,20.50
2018-03-02T00:13:59.051Z,22.80
2018-03-02T00:14:59.017Z,23.10
2018-03-02T00:15:58.987Z,25.00
2018-03-02T00:16:58.970Z,19.10
2018-03-02T00:17:58.922Z,22.40
2018-03-02T00:18:58.889Z,18.10
2018-03-02T00:19:58.856Z,22.20
2018-03-02T00:20:58.827Z,22.90
2018-03-02T00:21:58.792Z,20.00
2018-03-02T00:22:58.760Z,27.30
2018-03-02T00:23:58.731Z,25.00
2018-03-02T00:24:58.697Z,21.00
2018-03-02T00:25:58.661Z,22.20
2018-03-02T00:26:58.629Z,21.80
2018-03-02T00:27:58.601Z,21.70
2018-03-02T00:28:58.567Z,23.20
2018-03-02T00:29:58.536Z,24.00
2018-03-02T00:30:58.507Z,22.90
2018-03-02T00:31:58.468Z,24.70
2018-03-02T00:32:58.435Z,23.40
2018-03-02T00:33:58.406Z,22.30
2018-03-02T00:34:58.372Z,22.90
2018-03-02T00:35:58.340Z,27.10
2018-03-02T00:36:58.309Z,18.90
2018-03-02T00:37:58.386Z,25.80
2018-03-02T00:38:58.248Z,24.60
2018-03-02T00:39:58.211Z,24.60
2018-03-02T00:40:58.210Z,27.50
2018-03-02T00:41:58.155Z,24.90
2018-03-02T00:42:58.120Z,22.60
2018-03-02T00:43:58.096Z,22.70
2018-03-02T00:44:58.051Z,23.70
2018-03-02T00:45:58.017Z,21.20
2018-03-02T00:46:57.987Z,25.30
2018-03-02T00:47:57.953Z,25.30
2018-03-02T00:48:57.932Z,22.40
2018-03-02T00:49:57.888Z,23.30
2018-03-02T00:50:57.856Z,26.90
2018-03-02T00:51:57.838Z,22.30
2018-03-02T00:52:57.791Z,22.70
2018-03-02T00:53:57.774Z,20.70
2018-03-02T00:54:57.782Z,21.40
2018-03-02T00:55:57.694Z,24.50
2018-03-02T00:56:57.663Z,23.30
2018-03-02T00:57:57.631Z,30.40
2018-03-02T00:58:57.613Z,24.40
2018-03-02T00:59:57.563Z,23.20
2018-03-02T01:00:57.531Z,23.50
2018-03-02T01:01:57.556Z,26.50
2018-03-02T01:02:57.468Z,23.00
2018-03-02T01:03:57.438Z,24.60
2018-03-02T01:04:57.400Z,24.60
2018-03-02T01:05:57.370Z,22.40
2018-03-02T01:06:57.346Z,26.30
2018-03-02T01:07:57.314Z,27.60
2018-03-02T01:08:57.284Z,23.80
2018-03-02T01:09:57.250Z,23.40
2018-03-02T01:10:57.211Z,26.20
2018-03-02T01:11:57.177Z,28.70
2018-03-02T01:12:57.142Z,27.60
2018-03-02T01:13:57.123Z,27.80
2018-03-02T01:14:57.081Z,32.70
2018-03-02T01:15:57.046Z,26.90
2018-03-02T01:16:57.018Z,22.90
2018-03-02T01:17:56.990Z,24.80
2018-03-02T01:18:56.950Z,27.50
2018-03-02T01:19:56.916Z,30.70
2018-03-02T01:20:56.885Z,26.20
2018-03-02T01:21:56.853Z,28.60
2018-03-02T01:22:56.985Z,29.90
2018-03-02T01:23:56.790Z,26.00
2018-03-02T01:24:56.758Z,27.20
2018-03-02T01:25:56.841Z,24.50
2018-03-02T01:26:56.690Z,24.30
2018-03-02T01:27:56.658Z,30.90
2018-03-02T01:28:56.629Z,29.30
2018-03-02T01:29:56.593Z,31.00
2018-03-02T01:30:56.563Z,30.50
2018-03-02T01:31:56.537Z,28.80
2018-03-02T01:32:56.498Z,27.70
2018-03-02T01:33:56.466Z,24.10
2018-03-02T01:34:56.431Z,24.80
2018-03-02T01:35:56.399Z,24.40
2018-03-02T01:36:56.367Z,28.10
2018-03-02T01:37:56.343Z,32.50
2018-03-02T01:38:56.319Z,31.20
2018-03-02T01:39:56.271Z,31.60
2018-03-02T01:40:56.238Z,29.40
2018-03-02T01:41:56.208Z,30.00
2018-03-02T01:42:56.176Z,27.40
2018-03-02T01:43:56.148Z,25.30
2018-03-02T01:44:56.119Z,29.80
2018-03-02T01:45:56.077Z,31.20
2018-03-02T01:46:56.046Z,23.90
2018-03-02T01:47:56.016Z,31.40
2018-03-02T01:48:55.983Z,30.90
2018-03-02T01:49:55.949Z,29.70
2018-03-02T01:50:55.915Z,28.70
2018-03-02T01:51:55.886Z,30.30
2018-03-02T01:52:55.859Z,28.70
2018-03-02T01:53:55.819Z,29.60
2018-03-02T01:54:55.791Z,25.10
2018-03-02T01:55:55.755Z,23.00
2018-03-02T01:56:55.724Z,30.10
2018-03-02T01:57:55.694Z,27.50
2018-03-02T01:58:55.659Z,26.30
2018-03-02T01:59:55.628Z,24.80
2018-03-02T02:00:55.594Z,27.70
2018-03-02T02:01:55.564Z,29.30
2018-03-02T02:02:55.538Z,30.70
2018-03-02T02:03:55.503Z,30.70
2018-03-02T02:04:55.472Z,33.00
2018-03-02T02:05:55.433Z,30.90
2018-03-02T02:06:55.403Z,30.50
2018-03-02T02:07:55.365Z,32.10
2018-03-02T02:08:55.350Z,30.80
2018-03-02T02:09:55.302Z,26.90
2018-03-02T02:10:55.273Z,34.30
2018-03-02T02:11:55.237Z,31.10
2018-03-02T02:12:55.204Z,30.60
2018-03-02T02:13:55.180Z,34.30
2018-03-02T02:14:55.142Z,32.00
2018-03-02T02:15:55.107Z,30.50
2018-03-02T02:16:55.073Z,32.30
2018-03-02T02:17:55.042Z,32.50
2018-03-02T02:18:55.029Z,37.40
2018-03-02T02:19:54.981Z,32.40
2018-03-02T02:20:54.948Z,31.30
2018-03-02T02:21:54.923Z,29.40
2018-03-02T02:22:54.884Z,27.70
2018-03-02T02:23:54.990Z,33.30
2018-03-02T02:24:54.826Z,33.90
2018-03-02T02:25:54.784Z,28.10
2018-03-02T02:26:54.845Z,29.50
2018-03-02T02:27:54.721Z,39.00
2018-03-02T02:28:54.689Z,33.60
2018-03-02T02:29:54.752Z,36.60
2018-03-02T02:30:54.628Z,33.80
2018-03-02T02:31:54.595Z,31.70
2018-03-02T02:32:54.555Z,38.20
2018-03-02T02:33:54.523Z,33.90
2018-03-02T02:34:54.493Z,35.10
2018-03-02T02:35:54.460Z,25.10
2018-03-02T02:36:54.429Z,35.10
2018-03-02T02:37:54.395Z,31.80
2018-03-02T02:38:54.359Z,31.60
2018-03-02T02:39:54.329Z,32.00
2018-03-02T02:40:54.295Z,26.40
2018-03-02T02:41:54.261Z,34.90
2018-03-02T02:42:54.228Z,33.50
2018-03-02T02:43:54.198Z,27.10
2018-03-02T02:44:54.162Z,27.70
2018-03-02T02:45:54.130Z,34.40
2018-03-02T02:46:54.098Z,31.50
2018-03-02T02:47:54.062Z,31.20
2018-03-02T02:48:54.032Z,32.30
2018-03-02T02:49:54.007Z,35.90
2018-03-02T02:50:53.967Z,30.30
2018-03-02T02:51:53.936Z,30.60
2018-03-02T02:52:53.902Z,29.00
2018-03-02T02:53:53.869Z,29.80
2018-03-02T02:54:53.838Z,33.20
2018-03-02T02:55:53.806Z,30.00
2018-03-02T02:56:53.769Z,41.00
2018-03-02T02:57:53.738Z,36.50
2018-03-02T02:58:53.705Z,34.00
2018-03-02T02:59:53.681Z,26.90
2018-03-02T03:00:53.638Z,30.80
2018-03-02T03:01:53.622Z,36.00
2018-03-02T03:02:53.577Z,34.40
2018-03-02T03:03:53.541Z,34.10
2018-03-02T03:04:53.517Z,37.30
2018-03-02T03:05:53.475Z,35.60
2018-03-02T03:06:53.446Z,31.30
2018-03-02T03:07:53.410Z,36.80
2018-03-02T03:08:53.374Z,37.70
2018-03-02T03:09:53.345Z,37.70
2018-03-02T03:10:53.309Z,33.20
2018-03-02T03:11:53.423Z,36.30
2018-03-02T03:12:53.243Z,36.20
2018-03-02T03:13:53.215Z,31.90
2018-03-02T03:14:53.227Z,31.90
2018-03-02T03:15:53.146Z,33.10
2018-03-02T03:16:53.116Z,35.60
2018-03-02T03:17:53.185Z,36.10
2018-03-02T03:18:53.049Z,35.20
2018-03-02T03:19:53.015Z,36.00
2018-03-02T03:20:52.988Z,36.70
2018-03-02T03:21:52.952Z,32.40
2018-03-02T03:22:52.917Z,33.20
2018-03-02T03:23:52.891Z,33.50
2018-03-02T03:24:52.853Z,38.30
2018-03-02T03:25:52.817Z,36.60
2018-03-02T03:26:52.784Z,37.70
2018-03-02T03:27:52.752Z,36.80
2018-03-02T03:28:52.722Z,32.60
2018-03-02T03:29:52.687Z,36.60
2018-03-02T03:30:52.662Z,38.80
2018-03-02T03:31:52.621Z,35.60
2018-03-02T03:32:52.592Z,33.60
2018-03-02T03:33:52.554Z,41.50
2018-03-02T03:34:52.524Z,40.10
2018-03-02T03:35:52.491Z,35.00
2018-03-02T03:36:52.456Z,37.90
2018-03-02T03:37:52.425Z,31.60
2018-03-02T03:38:52.393Z,31.40
2018-03-02T03:39:52.365Z,40.00
2018-03-02T03:40:52.330Z,40.40
2018-03-02T03:41:52.295Z,34.50
2018-03-02T03:42:52.263Z,37.70
2018-03-02T03:43:52.231Z,34.00
2018-03-02T03:44:52.195Z,30.80
2018-03-02T03:45:52.161Z,33.30
2018-03-02T03:46:52.128Z,37.10
2018-03-02T03:47:52.095Z,33.80
2018-03-02T03:48:52.064Z,40.00
2018-03-02T03:49:52.036Z,32.10
2018-03-02T03:50:52.000Z,34.10
2018-03-02T03:51:51.963Z,36.60
2018-03-02T03:52:51.931Z,41.50
2018-03-02T03:53:51.898Z,38.70
2018-03-02T03:54:51.865Z,39.10
2018-03-02T03:55:51.830Z,38.50
2018-03-02T03:56:51.802Z,37.00
2018-03-02T03:57:51.769Z,36.90
2018-03-02T03:58:51.738Z,42.90
2018-03-02T03:59:51.717Z,36.80
2018-03-02T04:00:51.666Z,38.00
2018-03-02T04:01:51.634Z,35.60
2018-03-02T04:02:51.677Z,32.40
2018-03-02T04:03:51.567Z,38.00
2018-03-02T04:04:51.537Z,39.70
2018-03-02T04:05:51.666Z,31.80
2018-03-02T04:06:51.474Z,37.10
2018-03-02T04:07:51.436Z,36.70
2018-03-02T04:08:51.482Z,45.70
2018-03-02T04:09:51.372Z,34.80
2018-03-02T04:10:51.354Z,39.70
2018-03-02T04:11:51.357Z,38.80
2018-03-02T04:12:51.276Z,37.90
2018-03-02T04:13:51.239Z,39.50
2018-03-02T04:14:51.209Z,40.80
2018-03-02T04:15:51.179Z,31.60
2018-03-02T04:16:51.139Z,30.20
2018-03-02T04:17:51.114Z,27.30
2018-03-02T04:18:51.075Z,26.70
2018-03-02T04:19:51.045Z,30.00
2018-03-02T04:20:51.008Z,43.70
2018-03-02T04:21:50.975Z,33.40
2018-03-02T04:22:50.945Z,36.30
2018-03-02T04:23:50.910Z,37.20
2018-03-02T04:24:50.875Z,40.20
2018-03-02T04:25:50.849Z,40.50
2018-03-02T04:26:50.810Z,41.20
2018-03-02T04:27:50.776Z,37.90
2018-03-02T04:28:50.744Z,41.80
2018-03-02T04:29:50.713Z,34.20
2018-03-02T04:30:50.677Z,34.40
2018-03-02T04:31:50.644Z,37.10
2018-03-02T04:32:50.614Z,38.80
2018-03-02T04:33:50.578Z,39.70
2018-03-02T04:34:50.546Z,38.60
2018-03-02T04:35:50.530Z,42.50
2018-03-02T04:36:50.478Z,42.80
2018-03-02T04:37:50.447Z,34.30
2018-03-02T04:38:50.412Z,32.60
2018-03-02T04:39:50.381Z,37.90
2018-03-02T04:40:50.345Z,42.60
2018-03-02T04:41:50.312Z,43.60
2018-03-02T04:42:50.286Z,41.50
2018-03-02T04:43:50.246Z,32.60
2018-03-02T04:44:50.214Z,39.80
2018-03-02T04:45:50.181Z,34.00
2018-03-02T04:46:50.146Z,39.80
2018-03-02T04:47:50.115Z,34.70
2018-03-02T04:48:50.082Z,36.10
2018-03-02T04:49:50.052Z,40.90
2018-03-02T04:50:50.017Z,33.50
2018-03-02T04:51:49.980Z,31.80
2018-03-02T04:52:49.951Z,39.60
2018-03-02T04:53:49.997Z,39.20
2018-03-02T04:54:49.880Z,31.50
2018-03-02T04:55:49.850Z,38.00
2018-03-02T04:56:49.816Z,43.00
2018-03-02T04:57:49.791Z,42.60
2018-03-02T04:58:49.751Z,38.80
2018-03-02T04:59:49.714Z,34.10
2018-03-02T05:00:49.690Z,35.80
2018-03-02T05:01:49.650Z,35.10
2018-03-02T05:02:49.618Z,41.40
2018-03-02T05:03:49.743Z,40.40
2018-03-02T05:04:49.550Z,40.40
2018-03-02T05:05:49.519Z,36.20
2018-03-02T05:06:49.599Z,42.30
2018-03-02T05:07:49.448Z,42.10
2018-03-02T05:08:49.419Z,34.90
2018-03-02T05:09:49.396Z,40.60
2018-03-02T05:10:49.347Z,47.70
2018-03-02T05:11:49.319Z,46.20
2018-03-02T05:12:49.282Z,41.10
2018-03-02T05:13:49.248Z,42.20
2018-03-02T05:14:49.241Z,33.90
2018-03-02T05:15:49.192Z,42.00
2018-03-02T05:16:49.150Z,36.40
2018-03-02T05:17:49.117Z,43.70
2018-03-02T05:18:49.082Z,38.70
2018-03-02T05:19:49.050Z,33.20
2018-03-02T05:20:49.016Z,39.30
2018-03-02T05:21:48.983Z,35.00
2018-03-02T05:22:48.950Z,34.40
2018-03-02T05:23:48.920Z,38.30
2018-03-02T05:24:48.886Z,38.00
2018-03-02T05:25:48.849Z,38.70
2018-03-02T05:26:48.832Z,34.10
2018-03-02T05:27:48.782Z,37.90
2018-03-02T05:28:48.751Z,38.90
2018-03-02T05:29:48.726Z,34.10
2018-03-02T05:30:48.684Z,36.10
2018-03-02T05:31:48.649Z,40.10
2018-03-02T05:32:48.624Z,32.30
2018-03-02T05:33:48.585Z,36.60
2018-03-02T05:34:48.623Z,38.30
2018-03-02T05:35:48.516Z,37.60
2018-03-02T05:36:48.485Z,42.00
2018-03-02T05:37:48.458Z,40.60
2018-03-02T05:38:48.418Z,39.30
2018-03-02T05:39:48.384Z,44.10
2018-03-02T05:40:48.349Z,41.00
2018-03-02T05:41:48.332Z,29.40
2018-03-02T05:42:48.283Z,40.60
2018-03-02T05:43:48.256Z,36.20
2018-03-02T05:44:48.345Z,36.60
2018-03-02T05:45:48.192Z,44.20
2018-03-02T05:46:48.150Z,41.50
2018-03-02T05:47:48.118Z,33.60
2018-03-02T05:48:48.084Z,36.60
2018-03-02T05:49:48.055Z,27.00
2018-03-02T05:50:48.015Z,32.80
2018-03-02T05:51:47.991Z,35.50
2018-03-02T05:52:48.004Z,29.40
2018-03-02T05:53:47.918Z,43.50
2018-03-02T05:54:47.892Z,42.30
2018-03-02T05:55:47.848Z,43.20
2018-03-02T05:56:47.814Z,39.10
2018-03-02T05:57:47.783Z,34.40
2018-03-02T05:58:47.752Z,30.40
2018-03-02T05:59:47.717Z,35.40
2018-03-02T06:00:47.682Z,39.30
2018-03-02T06:01:47.656Z,35.90
2018-03-02T06:02:47.623Z,37.60
2018-03-02T06:03:47.581Z,40.90
2018-03-02T06:04:47.546Z,39.70
2018-03-02T06:05:47.514Z,42.10
2018-03-02T06:06:47.481Z,42.80
2018-03-02T06:07:47.446Z,40.80
2018-03-02T06:08:47.414Z,35.70
2018-03-02T06:09:47.396Z,36.00
2018-03-02T06:10:47.345Z,34.00
2018-03-02T06:11:47.311Z,33.80
2018-03-02T06:12:47.285Z,38.10
2018-03-02T06:13:47.245Z,32.80
2018-03-02T06:14:47.211Z,34.70
2018-03-02T06:15:47.180Z,42.10
2018-03-02T06:16:47.145Z,34.50
2018-03-02T06:17:47.109Z,37.20
2018-03-02T06:18:47.096Z,33.30
2018-03-02T06:19:47.044Z,39.70
2018-03-02T06:20:47.008Z,39.10
2018-03-02T06:21:46.974Z,35.00
2018-03-02T06:22:46.945Z,36.00
2018-03-02T06:23:46.908Z,42.50
2018-03-02T06:24:46.873Z,41.40
2018-03-02T06:25:46.841Z,37.00
2018-03-02T06:26:46.811Z,43.80
2018-03-02T06:27:46.772Z,39.60
2018-03-02T06:28:46.739Z,38.50
2018-03-02T06:29:46.708Z,40.80
2018-03-02T06:30:46.678Z,37.40
2018-03-02T06:31:46.637Z,36.90
2018-03-02T06:32:46.608Z,33.80
2018-03-02T06:33:46.574Z,37.50
2018-03-02T06:34:46.538Z,32.10
2018-03-02T06:35:46.507Z,43.60
2018-03-02T06:36:46.481Z,37.00
2018-03-02T06:37:46.437Z,38.80
2018-03-02T06:38:46.407Z,35.20
2018-03-02T06:39:46.372Z,38.40
2018-03-02T06:40:46.346Z,39.40
2018-03-02T06:41:46.311Z,41.40
2018-03-02T06:42:46.270Z,36.10
2018-03-02T06:43:46.240Z,35.00
2018-03-02T06:44:46.202Z,34.80
2018-03-02T06:45:46.169Z,41.10
2018-03-02T06:46:46.136Z,42.00
2018-03-02T06:47:46.100Z,36.50
2018-03-02T06:48:46.080Z,40.30
2018-03-02T06:49:46.034Z,35.70
2018-03-02T06:50:46.001Z,36.90
2018-03-02T06:51:46.016Z,43.00
2018-03-02T06:52:45.934Z,42.10
2018-03-02T06:53:45.899Z,43.60
2018-03-02T06:54:45.921Z,34.20
2018-03-02T06:55:45.836Z,31.30
2018-03-02T06:56:45.799Z,43.10
2018-03-02T06:57:45.769Z,42.90
2018-03-02T06:58:45.743Z,33.80
2018-03-02T06:59:45.701Z,37.10
2018-03-02T07:00:45.671Z,37.40
2018-03-02T07:01:45.633Z,35.60
2018-03-02T07:02:45.602Z,33.00
2018-03-02T07:03:45.575Z,31.00
2018-03-02T07:04:45.536Z,36.90
2018-03-02T07:05:45.498Z,38.70
2018-03-02T07:06:45.466Z,40.10
2018-03-02T07:07:45.434Z,32.50
2018-03-02T07:08:45.396Z,32.50
2018-03-02T07:09:45.373Z,46.60
2018-03-02T07:10:45.350Z,40.20
2018-03-02T07:11:45.299Z,41.80
2018-03-02T07:12:45.265Z,36.40
2018-03-02T07:13:45.243Z,45.90
2018-03-02T07:14:45.203Z,49.70
2018-03-02T07:15:45.166Z,38.40
2018-03-02T07:16:45.134Z,34.30
2018-03-02T07:17:45.102Z,35.60
2018-03-02T07:18:45.067Z,39.70
2018-03-02T07:19:45.032Z,37.00
2018-03-02T07:20:45.003Z,33.70
2018-03-02T07:21:44.978Z,38.50
2018-03-02T07:22:44.942Z,38.60
2018-03-02T07:23:44.903Z,33.70
2018-03-02T07:24:44.864Z,38.60
2018-03-02T07:25:44.833Z,49.30
2018-03-02T07:26:44.802Z,35.60
2018-03-02T07:27:44.764Z,34.00
2018-03-02T07:28:44.734Z,36.40
2018-03-02T07:29:44.701Z,43.60
2018-03-02T07:30:44.675Z,47.10
2018-03-02T07:31:44.636Z,36.80
2018-03-02T07:32:44.599Z,41.90
2018-03-02T07:33:44.570Z,35.20
2018-03-02T07:34:44.533Z,37.40
2018-03-02T07:35:44.499Z,42.90
2018-03-02T07:36:44.477Z,37.30
2018-03-02T07:37:44.435Z,42.30
2018-03-02T07:38:44.401Z,42.20
2018-03-02T07:39:44.382Z,32.70
2018-03-02T07:40:44.338Z,36.70
2018-03-02T07:41:44.308Z,31.10
2018-03-02T07:42:44.296Z,40.50
2018-03-02T07:43:44.239Z,44.90
2018-03-02T07:44:44.205Z,46.20
2018-03-02T07:45:44.261Z,36.70
2018-03-02T07:46:44.148Z,40.10
2018-03-02T07:47:44.108Z,47.10
2018-03-02T07:48:44.115Z,42.60
2018-03-02T07:49:44.040Z,44.30
2018-03-02T07:50:44.006Z,40.70
2018-03-02T07:51:43.977Z,46.00
2018-03-02T07:52:43.942Z,37.90
2018-03-02T07:53:43.922Z,31.30
2018-03-02T07:54:43.878Z,43.80
2018-03-02T07:55:43.843Z,38.50
2018-03-02T07:56:43.817Z,39.40
2018-03-02T07:57:43.778Z,42.40
2018-03-02T07:58:43.746Z,40.80
2018-03-02T07:59:43.715Z,38.40
2018-03-02T08:00:43.679Z,47.70
2018-03-02T08:01:43.656Z,37.20
2018-03-02T08:02:43.646Z,41.90
2018-03-02T08:03:43.586Z,34.90
2018-03-02T08:04:43.546Z,34.80
2018-03-02T08:05:43.518Z,34.70
2018-03-02T08:06:43.490Z,45.60
2018-03-02T08:07:43.452Z,43.90
2018-03-02T08:08:43.433Z,43.50
2018-03-02T08:09:43.437Z,33.00
2018-03-02T08:10:43.359Z,39.80
2018-03-02T08:11:43.318Z,44.10
2018-03-02T08:12:43.286Z,48.10
2018-03-02T08:13:43.262Z,52.80
2018-03-02T08:14:43.224Z,41.20
2018-03-02T08:15:43.190Z,34.60
2018-03-02T08:16:43.160Z,43.50
2018-03-02T08:17:43.126Z,39.30
2018-03-02T08:18:43.101Z,39.40
2018-03-02T08:19:43.066Z,35.50
2018-03-02T08:20:43.028Z,43.40
2018-03-02T08:21:42.997Z,31.20
2018-03-02T08:22:42.965Z,34.00
2018-03-02T08:23:42.932Z,36.60
2018-03-02T08:24:42.904Z,40.50
2018-03-02T08:25:42.869Z,43.00
2018-03-02T08:26:42.839Z,43.80
2018-03-02T08:27:42.815Z,42.80
2018-03-02T08:28:42.774Z,39.60
2018-03-02T08:29:42.749Z,46.30
2018-03-02T08:30:42.848Z,46.30
2018-03-02T08:31:42.675Z,41.30
2018-03-02T08:32:42.642Z,39.80
2018-03-02T08:33:42.613Z,45.00
2018-03-02T08:34:42.581Z,39.70
2018-03-02T08:35:42.553Z,37.40
2018-03-02T08:36:42.520Z,36.60
2018-03-02T08:37:42.490Z,41.60
2018-03-02T08:38:42.451Z,40.80
2018-03-02T08:39:42.422Z,42.30
2018-03-02T08:40:42.386Z,50.50
2018-03-02T08:41:42.353Z,37.90
2018-03-02T08:42:42.325Z,34.30
2018-03-02T08:43:42.291Z,39.50
2018-03-02T08:44:42.270Z,31.90
2018-03-02T08:45:42.230Z,35.90
2018-03-02T08:46:42.196Z,39.20
2018-03-02T08:47:42.169Z,38.80
2018-03-02T08:48:42.129Z,38.00
2018-03-02T08:49:42.099Z,29.90
2018-03-02T08:50:42.070Z,33.50
2018-03-02T08:51:42.032Z,35.90
2018-03-02T08:52:42.096Z,46.90
2018-03-02T08:53:41.977Z,45.90
2018-03-02T08:54:41.949Z,37.80
2018-03-02T08:55:41.912Z,39.40
2018-03-02T08:56:41.878Z,35.70
2018-03-02T08:57:41.842Z,38.70
2018-03-02T08:58:41.894Z,34.10
2018-03-02T08:59:41.783Z,34.20
2018-03-02T09:00:41.752Z,33.10
2018-03-02T09:01:41.719Z,41.00
2018-03-02T09:02:41.698Z,36.80
2018-03-02T09:03:41.660Z,43.20
2018-03-02T09:04:41.623Z,44.00
2018-03-02T09:05:41.599Z,48.10
2018-03-02T09:06:41.568Z,48.50
2018-03-02T09:07:41.539Z,46.30
2018-03-02T09:08:41.515Z,49.10
2018-03-02T09:09:41.480Z,42.60
2018-03-02T09:10:41.455Z,47.70
2018-03-02T09:11:41.424Z,39.50
2018-03-02T09:12:41.397Z,33.80
2018-03-02T09:13:41.374Z,44.10
2018-03-02T09:14:41.475Z,47.40
2018-03-02T09:15:41.310Z,40.80
2018-03-02T09:16:41.290Z,43.40
2018-03-02T09:17:41.258Z,44.30
2018-03-02T09:18:41.238Z,42.90
2018-03-02T09:19:41.203Z,44.40
2018-03-02T09:20:41.176Z,45.00
2018-03-02T09:21:41.148Z,48.40
2018-03-02T09:22:41.125Z,51.10
2018-03-02T09:23:41.102Z,42.10
2018-03-02T09:24:41.070Z,39.90
2018-03-02T09:25:41.093Z,43.70
2018-03-02T09:26:41.017Z,45.40
2018-03-02T09:27:41.004Z,53.80
2018-03-02T09:28:41.104Z,51.00
2018-03-02T09:29:40.948Z,44.80
2018-03-02T09:30:40.914Z,48.90
2018-03-02T09:31:40.887Z,50.00
2018-03-02T09:32:40.872Z,41.80
2018-03-02T09:33:40.836Z,50.50
2018-03-02T09:34:40.822Z,49.60
2018-03-02T09:35:40.804Z,49.10
2018-03-02T09:36:40.763Z,49.70
2018-03-02T09:37:40.737Z,49.40
2018-03-02T09:38:40.719Z,41.90
2018-03-02T09:39:40.685Z,44.90
2018-03-02T09:40:40.665Z,43.60
2018-03-02T09:41:40.673Z,45.90
2018-03-02T09:42:40.617Z,46.30
2018-03-02T09:43:40.604Z,43.10
2018-03-02T09:44:40.559Z,50.00
2018-03-02T09:45:40.538Z,50.60
2018-03-02T09:46:40.513Z,52.40
2018-03-02T09:47:40.484Z,45.80
2018-03-02T09:48:40.454Z,51.70
2018-03-02T09:49:40.434Z,43.80
2018-03-02T09:50:40.403Z,43.70
2018-03-02T09:51:40.373Z,42.50
2018-03-02T09:52:40.361Z,49.70
2018-03-02T09:53:40.329Z,45.20
2018-03-02T09:54:40.324Z,47.80
2018-03-02T09:55:40.276Z,42.20
2018-03-02T09:56:40.255Z,45.50
2018-03-02T09:57:40.225Z,48.30
2018-03-02T09:58:40.215Z,46.20
2018-03-02T09:59:40.189Z,42.10
2018-03-02T10:00:40.156Z,52.70
2018-03-02T10:01:40.126Z,51.00
2018-03-02T10:02:40.103Z,53.80
2018-03-02T10:03:40.175Z,44.00
2018-03-02T10:04:40.070Z,45.90
2018-03-02T10:05:40.033Z,45.20
2018-03-02T10:06:40.008Z,48.40
2018-03-02T10:07:39.982Z,44.80
2018-03-02T10:08:39.965Z,49.10
2018-03-02T10:09:39.934Z,44.90
2018-03-02T10:10:39.912Z,45.50
2018-03-02T10:11:39.887Z,50.90
2018-03-02T10:12:39.862Z,48.10
2018-03-02T10:13:39.839Z,46.70
2018-03-02T10:14:39.828Z,53.80
2018-03-02T10:15:39.790Z,49.30
2018-03-02T10:16:39.775Z,52.10
2018-03-02T10:17:39.753Z,53.10
2018-03-02T10:18:39.725Z,53.80
2018-03-02T10:19:39.696Z,49.80
2018-03-02T10:20:39.671Z,49.30
2018-03-02T10:21:39.656Z,50.60
2018-03-02T10:22:39.625Z,56.70
2018-03-02T10:23:39.744Z,55.00
2018-03-02T10:24:39.576Z,50.40
2018-03-02T10:25:39.553Z,48.60
2018-03-02T10:26:39.530Z,53.00
2018-03-02T10:27:39.508Z,53.50
2018-03-02T10:28:39.482Z,44.40
2018-03-02T10:29:39.462Z,52.10
2018-03-02T10:30:39.437Z,50.90
2018-03-02T10:31:39.409Z,52.10
2018-03-02T10:32:39.393Z,53.80
2018-03-02T10:33:39.373Z,51.50
2018-03-02T10:34:39.342Z,46.60
2018-03-02T10:35:39.352Z,50.50
2018-03-02T10:36:39.296Z,45.20
2018-03-02T10:37:39.272Z,50.40
2018-03-02T10:38:39.301Z,53.60
2018-03-02T10:39:39.226Z,52.10
2018-03-02T10:40:39.208Z,50.90
2018-03-02T10:41:39.179Z,55.70
2018-03-02T10:42:39.165Z,52.90
2018-03-02T10:43:39.145Z,56.40
2018-03-02T10:44:39.107Z,47.60
2018-03-02T10:45:39.085Z,51.00
2018-03-02T10:46:39.058Z,42.50
2018-03-02T10:47:39.039Z,50.40
2018-03-02T10:48:39.013Z,53.20
2018-03-02T10:49:38.995Z,54.20
2018-03-02T10:50:39.033Z,55.40
2018-03-02T10:51:38.943Z,53.70
2018-03-02T10:52:38.919Z,51.90
2018-03-02T10:53:38.902Z,56.40
2018-03-02T10:54:38.868Z,55.40
2018-03-02T10:55:38.851Z,47.70
2018-03-02T10:56:38.837Z,53.30
2018-03-02T10:57:38.821Z,56.10
2018-03-02T10:58:38.836Z,58.20
2018-03-02T10:59:38.751Z,54.50
2018-03-02T11:00:38.736Z,53.60
2018-03-02T11:01:38.708Z,51.00
2018-03-02T11:02:38.683Z,54.70
2018-03-02T11:03:38.656Z,51.70
2018-03-02T11:04:38.633Z,55.30
2018-03-02T11:05:38.612Z,46.20
2018-03-02T11:06:38.585Z,54.00
2018-03-02T11:07:38.562Z,55.10
2018-03-02T11:08:38.589Z,49.90
2018-03-02T11:09:38.516Z,50.80
2018-03-02T11:10:38.491Z,55.10
2018-03-02T11:11:38.622Z,57.50
2018-03-02T11:12:38.448Z,57.30
2018-03-02T11:13:38.421Z,58.40
2018-03-02T11:14:38.395Z,53.90
2018-03-02T11:15:38.375Z,58.20
2018-03-02T11:16:38.359Z,54.00
2018-03-02T11:17:38.326Z,58.00
2018-03-02T11:18:38.311Z,52.80
2018-03-02T11:19:38.280Z,47.20
2018-03-02T11:20:38.252Z,51.00
2018-03-02T11:21:38.231Z,50.10
2018-03-02T11:22:38.210Z,60.30
2018-03-02T11:23:38.182Z,58.40
2018-03-02T11:24:38.167Z,52.20
2018-03-02T11:25:38.138Z,55.10
2018-03-02T11:26:38.115Z,52.30
2018-03-02T11:27:38.117Z,55.80
2018-03-02T11:28:38.077Z,67.90
2018-03-02T11:29:38.038Z,55.70
2018-03-02T11:30:38.082Z,52.80
2018-03-02T11:31:38.000Z,55.70
2018-03-02T11:32:37.977Z,57.70
2018-03-02T11:33:37.954Z,57.80
2018-03-02T11:34:37.920Z,59.90
2018-03-02T11:35:37.928Z,56.60
2018-03-02T11:36:37.874Z,60.60
2018-03-02T11:37:37.850Z,56.80
2018-03-02T11:38:37.831Z,62.00
2018-03-02T11:39:37.807Z,53.40
2018-03-02T11:40:37.792Z,63.50
2018-03-02T11:41:37.753Z,57.90
2018-03-02T11:42:37.731Z,62.90
2018-03-02T11:43:37.729Z,62.30
2018-03-02T11:44:37.682Z,57.40
2018-03-02T11:45:37.669Z,56.70
2018-03-02T11:46:37.638Z,59.40
2018-03-02T11:47:37.609Z,57.40
2018-03-02T11:48:37.593Z,57.70
2018-03-02T11:49:37.567Z,63.00
2018-03-02T11:50:37.551Z,59.30
2018-03-02T11:51:37.517Z,59.00
2018-03-02T11:52:37.515Z,51.60
2018-03-02T11:53:37.484Z,52.10
2018-03-02T11:54:37.450Z,59.20
2018-03-02T11:55:37.421Z,49.80
2018-03-02T11:56:37.406Z,53.30
2018-03-02T11:57:37.380Z,59.80
2018-03-02T11:58:37.349Z,58.90
2018-03-02T11:59:37.327Z,56.40
2018-03-02T12:00:37.298Z,54.50
2018-03-02T12:01:37.276Z,65.50
2018-03-02T12:02:37.258Z,61.00
2018-03-02T12:03:37.228Z,58.60
2018-03-02T12:04:37.199Z,59.50
2018-03-02T12:05:37.185Z,64.20
2018-03-02T12:06:37.151Z,54.10
2018-03-02T12:07:37.132Z,50.90
2018-03-02T12:08:37.106Z,56.10
2018-03-02T12:09:37.119Z,60.60
2018-03-02T12:10:37.092Z,62.50
2018-03-02T12:11:37.054Z,60.60
2018-03-02T12:12:37.004Z,62.20
2018-03-02T12:13:36.973Z,50.80
2018-03-02T12:14:36.949Z,54.50
2018-03-02T12:15:36.925Z,51.80
2018-03-02T12:16:36.908Z,53.20
2018-03-02T12:17:36.887Z,58.60
2018-03-02T12:18:36.850Z,63.00
2018-03-02T12:19:36.823Z,58.50
2018-03-02T12:20:36.794Z,56.40
2018-03-02T12:21:36.782Z,60.60
2018-03-02T12:22:36.791Z,54.70
2018-03-02T12:23:36.720Z,63.30
2018-03-02T12:24:36.692Z,52.10
2018-03-02T12:25:36.675Z,57.10
2018-03-02T12:26:36.641Z,58.30
2018-03-02T12:27:36.612Z,54.60
2018-03-02T12:28:36.588Z,43.10
2018-03-02T12:29:36.563Z,56.20
2018-03-02T12:30:36.536Z,63.10
2018-03-02T12:31:36.513Z,59.20
2018-03-02T12:32:36.484Z,62.70
2018-03-02T12:33:36.509Z,53.30
2018-03-02T12:34:36.445Z,51.70
2018-03-02T12:35:36.416Z,64.20
2018-03-02T12:36:36.461Z,60.00
2018-03-02T12:37:36.357Z,68.10
2018-03-02T12:38:36.321Z,48.30
2018-03-02T12:39:36.308Z,58.30
2018-03-02T12:40:36.279Z,61.20
2018-03-02T12:41:36.242Z,54.70
2018-03-02T12:42:36.323Z,53.10
2018-03-02T12:43:36.183Z,66.10
2018-03-02T12:44:36.194Z,61.20
2018-03-02T12:45:36.131Z,60.10
2018-03-02T12:46:36.103Z,59.40
2018-03-02T12:47:36.072Z,57.90
2018-03-02T12:48:36.049Z,54.70
2018-03-02T12:49:36.027Z,59.50
2018-03-02T12:50:35.992Z,55.80
2018-03-02T12:51:35.991Z,55.50
2018-03-02T12:52:35.949Z,67.50